Time;durP1;ratioP1;P1;durP2;ratioP2;P2;SDS_P1;SDS_P2;PMS_P1;PMS_P2;Temp;Humidity;BMP_temperature;BMP_pressure;BME280_temperature;BME280_humidity;BME280_pressure;Samples;Min_cycle;Max_cycle;Signal;HPM_P1;HPM_P2
2021/01/22 11:33:36;;;;;;;3.00;1.15;;;6.10;99.90;;;;;;5083509;27;1465521;-79
2021/01/22 11:36:04;;;;;;;1.48;0.90;;;8.90;99.90;;;;;;5065259;28;20040;-82
2021/01/22 11:38:33;;;;;;;0.95;0.73;;;6.10;99.90;;;;;;5068222;28;20048;-76
2021/01/22 11:40:59;;;;;;;1.83;0.90;;;6.20;99.90;;;;;;5056966;28;20069;-79
2021/01/22 11:43:24;;;;;;;2.22;0.90;;;6.30;99.90;;;;;;5090348;28;20027;-80
2021/01/22 11:45:50;;;;;;;2.55;1.00;;;6.80;99.90;;;;;;5084127;28;20061;-79
2021/01/22 11:48:16;;;;;;;2.63;1.10;;;6.30;99.90;;;;;;5110033;28;20023;-79
2021/01/22 11:50:42;;;;;;;4.38;1.83;;;6.30;99.90;;;;;;5068752;28;20122;-80
2021/01/22 11:53:08;;;;;;;1.52;0.93;;;8.00;99.90;;;;;;5099070;28;20031;-79
2021/01/22 11:55:37;;;;;;;3.45;1.02;;;6.30;99.90;;;;;;5102072;28;20046;-76
2021/01/22 11:58:03;;;;;;;1.88;1.00;;;6.00;99.90;;;;;;5084065;28;20058;-77
2021/01/22 12:00:29;;;;;;;5.20;1.40;;;5.90;99.90;;;;;;5062809;28;20044;-78
2021/01/22 12:02:54;;;;;;;3.35;1.40;;;5.90;99.90;;;;;;5063209;28;20044;-80
2021/01/22 12:05:20;;;;;;;2.15;1.10;;;6.00;99.90;;;;;;5084679;28;20183;-79
2021/01/22 12:07:46;;;;;;;1.77;0.82;;;5.70;99.90;;;;;;5084444;28;20098;-77
2021/01/22 12:10:12;;;;;;;2.28;1.20;;;5.60;99.90;;;;;;5082745;28;20475;-78
2021/01/22 12:12:38;;;;;;;1.27;0.82;;;;;;;;;;5087321;28;20047;-78
2021/01/22 12:15:07;;;;;;;1.77;0.88;;;6.10;99.90;;;;;;5108859;28;20051;-81
2021/01/22 12:17:33;;;;;;;1.00;0.63;;;6.00;99.90;;;;;;5104628;28;20048;-79
2021/01/22 12:19:59;;;;;;;2.15;0.80;;;5.90;99.90;;;;;;5090787;28;21417;-78
2021/01/22 12:22:25;;;;;;;1.25;0.90;;;5.80;99.90;;;;;;5086296;28;20097;-76
2021/01/22 12:24:50;;;;;;;2.55;0.80;;;6.70;99.90;;;;;;5081139;28;20087;-78
2021/01/22 12:27:16;;;;;;;2.22;0.90;;;5.70;99.90;;;;;;5102708;28;20066;-80
2021/01/22 12:29:42;;;;;;;6.55;1.33;;;5.40;99.90;;;;;;5097371;28;20039;-80
2021/01/22 12:32:08;;;;;;;4.57;2.05;;;5.70;99.90;;;;;;5083847;28;20329;-80
2021/01/22 12:34:34;;;;;;;2.30;1.20;;;5.70;99.90;;;;;;5064901;28;20044;-79
2021/01/22 12:37:00;;;;;;;18.05;8.52;;;5.70;99.90;;;;;;5064464;28;20043;-80
2021/01/22 12:39:26;;;;;;;1.65;1.00;;;5.60;99.90;;;;;;5082971;28;20036;-78
2021/01/22 12:41:51;;;;;;;1.85;1.10;;;5.80;99.90;;;;;;5106107;28;20106;-82
2021/01/22 12:44:18;;;;;;;1.20;0.82;;;7.80;99.90;;;;;;5076488;28;20582;-78
2021/01/22 12:46:43;;;;;;;1.60;0.80;;;5.50;99.90;;;;;;5082532;28;20051;-78
2021/01/22 12:49:10;;;;;;;1.65;0.95;;;;;;;;;;5091113;28;20040;-80
2021/01/22 12:51:36;;;;;;;1.60;0.82;;;;;;;;;;5067209;28;20047;-80
2021/01/22 12:54:02;;;;;;;1.65;0.80;;;5.60;99.90;;;;;;5086917;28;20028;-79
2021/01/22 12:56:28;;;;;;;2.17;0.80;;;5.70;99.90;;;;;;5047348;28;20085;-79
2021/01/22 12:58:54;;;;;;;1.92;1.00;;;5.70;99.90;;;;;;5079152;28;20067;-77
2021/01/22 13:01:21;;;;;;;1.85;0.88;;;5.60;99.90;;;;;;5068166;28;20064;-79
2021/01/22 13:03:48;;;;;;;1.88;0.80;;;5.50;99.90;;;;;;5083724;28;20036;-81
2021/01/22 13:06:13;;;;;;;2.03;1.08;;;6.40;99.90;;;;;;5044995;28;20042;-82
2021/01/22 13:08:40;;;;;;;1.40;0.82;;;5.60;99.90;;;;;;5022839;28;20043;-77
2021/01/22 13:11:06;;;;;;;1.13;0.82;;;6.70;99.90;;;;;;5021280;28;20044;-79
2021/01/22 13:13:32;;;;;;;2.42;1.05;;;5.70;99.90;;;;;;5045343;28;20120;-79
2021/01/22 13:15:58;;;;;;;2.83;0.90;;;5.70;99.90;;;;;;5063093;28;20063;-80
2021/01/22 13:18:23;;;;;;;2.58;0.82;;;5.80;99.90;;;;;;5043403;28;20115;-78
2021/01/22 13:20:49;;;;;;;3.65;1.00;;;5.50;99.90;;;;;;5085548;28;20032;-80
2021/01/22 13:23:14;;;;;;;2.30;1.20;;;5.80;99.90;;;;;;5058499;28;20399;-79
2021/01/22 13:25:40;;;;;;;2.25;1.05;;;5.90;99.90;;;;;;5033990;28;20044;-77
2021/01/22 13:28:06;;;;;;;2.00;1.10;;;6.60;99.90;;;;;;5082810;28;20043;-80
2021/01/22 13:30:32;;;;;;;1.88;1.10;;;6.00;99.90;;;;;;5068599;28;20036;-80
2021/01/22 13:32:58;;;;;;;2.10;1.25;;;6.00;99.90;;;;;;5079676;28;20036;-79
2021/01/22 13:35:24;;;;;;;4.28;1.45;;;;;;;;;;5045053;28;20029;-79
2021/01/22 13:37:49;;;;;;;2.60;1.27;;;5.90;99.90;;;;;;5066941;28;20423;-79
2021/01/22 13:40:16;;;;;;;3.13;1.80;;;6.40;99.90;;;;;;5071459;28;20040;-78
2021/01/22 13:42:43;;;;;;;4.43;2.28;;;5.90;99.90;;;;;;5046671;28;20044;-79
2021/01/22 13:45:10;;;;;;;4.63;1.67;;;5.90;99.90;;;;;;5067358;28;20047;-79
2021/01/22 13:47:38;;;;;;;4.15;1.40;;;5.90;99.90;;;;;;5042724;28;20051;-79
2021/01/22 13:50:05;;;;;;;3.13;1.50;;;5.80;99.90;;;;;;5060532;28;20508;-78
2021/01/22 13:52:31;;;;;;;1.25;0.70;;;5.90;99.90;;;;;;5063811;28;20046;-79
2021/01/22 13:54:57;;;;;;;2.63;1.30;;;6.00;99.90;;;;;;5050509;28;20131;-79
2021/01/22 13:57:24;;;;;;;3.35;1.52;;;6.10;99.90;;;;;;5064332;28;20086;-83
2021/01/22 13:59:49;;;;;;;2.63;1.38;;;6.00;99.90;;;;;;5048558;28;20044;-79
2021/01/22 14:02:16;;;;;;;1.83;1.20;;;6.00;99.90;;;;;;5060841;28;20440;-77
2021/01/22 14:04:42;;;;;;;2.92;1.40;;;6.10;99.90;;;;;;5064764;28;20052;-81
2021/01/22 14:07:08;;;;;;;2.55;1.30;;;6.00;99.90;;;;;;5082430;28;20037;-77
2021/01/22 14:09:34;;;;;;;2.63;1.30;;;6.10;99.90;;;;;;5062642;28;20052;-81
2021/01/22 14:12:00;;;;;;;4.57;2.00;;;6.20;99.90;;;;;;5081014;28;20051;-79
2021/01/22 14:14:25;;;;;;;4.88;2.40;;;6.30;99.90;;;;;;5049529;28;20047;-81
2021/01/22 14:16:52;;;;;;;5.13;2.00;;;6.40;99.90;;;;;;5059241;28;20051;-79
2021/01/22 14:19:17;;;;;;;4.68;1.70;;;6.40;99.90;;;;;;5048905;28;20031;-77
2021/01/22 14:21:43;;;;;;;3.00;1.70;;;6.50;99.90;;;;;;5046933;28;20051;-80
2021/01/22 14:24:09;;;;;;;2.50;1.45;;;7.30;99.90;;;;;;5061905;28;20418;-78
2021/01/22 14:26:34;;;;;;;2.90;1.60;;;6.40;99.90;;;;;;5056644;28;20073;-77
2021/01/22 14:29:00;;;;;;;9.05;4.15;;;6.50;99.90;;;;;;5068120;28;20104;-79
2021/01/22 14:31:26;;;;;;;4.68;1.80;;;6.40;99.90;;;;;;5084679;28;20457;-80
2021/01/22 14:33:52;;;;;;;3.88;2.10;;;5.80;99.90;;;;;;5053405;28;20090;-80
2021/01/22 14:36:18;;;;;;;3.92;1.60;;;6.30;99.90;;;;;;5060236;28;20032;-79
2021/01/22 14:38:44;;;;;;;3.47;1.92;;;6.20;99.90;;;;;;5037939;28;20040;-77
2021/01/22 14:41:10;;;;;;;2.88;1.70;;;6.20;99.90;;;;;;5049877;28;20425;-83
2021/01/22 14:43:35;;;;;;;4.70;2.20;;;6.20;99.90;;;;;;5064015;28;20039;-79
2021/01/22 14:46:01;;;;;;;3.58;1.77;;;6.20;99.90;;;;;;5040523;28;20096;-78
2021/01/22 14:48:27;;;;;;;4.60;2.10;;;6.30;99.90;;;;;;5068815;28;20044;-80
2021/01/22 14:50:52;;;;;;;4.00;2.00;;;6.20;99.90;;;;;;5084562;28;20032;-80
2021/01/22 14:53:20;;;;;;;3.85;2.08;;;6.20;99.90;;;;;;5044655;28;20048;-80
2021/01/22 14:55:46;;;;;;;2.50;1.70;;;8.40;99.90;;;;;;5089337;28;20019;-80
2021/01/22 14:58:13;;;;;;;2.67;1.58;;;6.40;99.90;;;;;;5085857;28;20028;-79
2021/01/22 15:00:39;;;;;;;3.53;1.80;;;6.80;99.90;;;;;;5060770;28;20039;-80
2021/01/22 15:03:05;;;;;;;4.15;2.05;;;6.30;99.90;;;;;;5061892;28;20206;-78
2021/01/22 15:05:30;;;;;;;3.40;2.05;;;6.30;99.90;;;;;;5051864;28;20063;-82
2021/01/22 15:07:59;;;;;;;3.75;1.95;;;6.30;99.90;;;;;;5069307;28;20051;-78
2021/01/22 15:10:25;;;;;;;4.97;2.00;;;;;;;;;;5070403;28;20115;-81
2021/01/22 15:12:51;;;;;;;4.80;2.25;;;6.30;99.90;;;;;;5048901;28;20155;-79
2021/01/22 15:15:17;;;;;;;3.33;1.70;;;6.20;99.90;;;;;;5064519;28;20119;-83
2021/01/22 15:17:43;;;;;;;4.03;2.10;;;6.20;99.90;;;;;;5078283;28;20046;-79
2021/01/22 15:20:09;;;;;;;4.20;2.35;;;7.10;99.90;;;;;;5076710;28;20028;-80
2021/01/22 15:22:35;;;;;;;3.83;2.10;;;6.20;99.90;;;;;;5058826;28;20506;-80
2021/01/22 15:25:01;;;;;;;3.38;2.00;;;7.40;99.90;;;;;;5078573;28;20021;-82
2021/01/22 15:27:26;;;;;;;3.25;1.70;;;6.20;99.90;;;;;;5086391;28;20569;-80
2021/01/22 15:29:52;;;;;;;3.92;1.98;;;6.20;99.90;;;;;;5056408;28;20048;-77
2021/01/22 15:32:18;;;;;;;5.07;2.10;;;7.80;99.90;;;;;;5065435;28;20120;-81
2021/01/22 15:34:44;;;;;;;3.42;1.83;;;6.10;99.90;;;;;;5069906;28;20043;-79
2021/01/22 15:37:10;;;;;;;3.42;2.13;;;6.10;99.90;;;;;;5049483;28;20064;-79
2021/01/22 15:39:35;;;;;;;3.78;2.28;;;6.10;99.90;;;;;;5063450;28;20044;-79
2021/01/22 15:42:02;;;;;;;3.03;1.70;;;6.10;99.90;;;;;;5084585;28;20032;-79
2021/01/22 15:44:27;;;;;;;4.63;2.40;;;6.10;99.90;;;;;;5044714;28;20048;-80
2021/01/22 15:46:53;;;;;;;3.60;1.65;;;6.10;99.90;;;;;;5062852;28;20043;-78
2021/01/22 15:49:19;;;;;;;3.45;1.70;;;7.00;99.90;;;;;;5069239;28;20047;-78
2021/01/22 15:51:44;;;;;;;4.35;1.90;;;6.10;99.90;;;;;;5062213;28;20036;-78
2021/01/22 15:54:12;;;;;;;2.90;1.60;;;6.00;99.90;;;;;;5058034;28;20035;-78
2021/01/22 15:56:38;;;;;;;5.25;2.30;;;6.00;99.90;;;;;;5050193;28;20527;-79
2021/01/22 15:59:04;;;;;;;3.33;1.60;;;6.10;99.90;;;;;;5067077;28;20115;-79
2021/01/22 16:01:30;;;;;;;4.47;2.25;;;6.00;99.90;;;;;;5065434;28;20116;-78
2021/01/22 16:03:56;;;;;;;4.80;2.20;;;6.10;99.90;;;;;;5089017;28;20065;-78
2021/01/22 16:06:22;;;;;;;3.78;1.92;;;6.00;99.90;;;;;;5062157;28;20090;-79
2021/01/22 16:08:47;;;;;;;3.00;1.98;;;6.00;99.90;;;;;;5048760;28;20036;-78
2021/01/22 16:11:13;;;;;;;7.32;2.78;;;6.00;99.90;;;;;;5068116;28;20030;-78
2021/01/22 16:13:39;;;;;;;4.78;2.30;;;6.00;99.90;;;;;;5079202;28;20135;-78
2021/01/22 16:16:05;;;;;;;3.85;1.95;;;;;;;;;;5067443;28;20634;-77
2021/01/22 16:18:31;;;;;;;4.22;2.20;;;5.90;99.90;;;;;;5067108;28;20036;-78
2021/01/22 16:20:59;;;;;;;5.03;2.30;;;5.90;99.90;;;;;;5060813;28;20044;-80
2021/01/22 16:23:25;;;;;;;6.80;3.50;;;5.90;99.90;;;;;;5062963;28;20217;-80
2021/01/22 16:25:51;;;;;;;3.58;2.22;;;6.00;99.90;;;;;;5088998;28;20051;-77
2021/01/22 16:28:17;;;;;;;5.80;2.38;;;;;;;;;;5075354;28;20039;-78
2021/01/22 16:30:43;;;;;;;5.65;2.53;;;6.00;99.90;;;;;;5040995;28;20449;-78
2021/01/22 16:33:09;;;;;;;7.00;2.75;;;5.90;99.90;;;;;;5065570;28;20040;-78
2021/01/22 16:35:35;;;;;;;5.30;2.90;;;5.90;99.90;;;;;;5086120;28;20048;-77
2021/01/22 16:38:01;;;;;;;4.85;2.90;;;5.90;99.90;;;;;;5070837;28;20070;-77
2021/01/22 16:40:27;;;;;;;7.82;3.65;;;5.80;99.90;;;;;;5073175;28;20040;-79
2021/01/22 16:42:53;;;;;;;4.65;2.72;;;5.80;99.90;;;;;;5071452;28;20063;-78
2021/01/22 16:45:19;;;;;;;7.85;3.97;;;5.80;99.90;;;;;;5071613;28;20036;-79
2021/01/22 16:47:45;;;;;;;4.63;2.90;;;5.80;99.90;;;;;;5067180;28;20444;-79
2021/01/22 16:50:11;;;;;;;5.97;2.90;;;5.80;99.90;;;;;;5071981;28;20090;-78
2021/01/22 16:52:37;;;;;;;4.38;3.03;;;5.80;99.90;;;;;;5064272;28;20139;-78
2021/01/22 16:55:04;;;;;;;4.95;2.95;;;5.80;99.90;;;;;;5061599;28;20052;-80
2021/01/22 16:57:29;;;;;;;5.32;2.65;;;5.80;99.90;;;;;;5050555;28;20115;-79
2021/01/22 16:59:55;;;;;;;9.45;5.50;;;6.10;99.90;;;;;;5048065;28;20056;-79
2021/01/22 17:02:21;;;;;;;15.90;7.78;;;8.80;99.90;;;;;;5032426;28;20055;-81
2021/01/22 17:04:47;;;;;;;13.00;6.70;;;2.90;99.90;;;;;;5068806;28;20055;-78
2021/01/22 17:07:12;;;;;;;7.55;4.20;;;7.90;99.90;;;;;;5043846;28;20036;-77
2021/01/22 17:09:38;;;;;;;6.57;4.13;;;7.80;99.90;;;;;;5063865;28;20521;-79
2021/01/22 17:12:04;;;;;;;9.15;3.53;;;5.80;99.90;;;;;;5084649;28;20029;-78
2021/01/22 17:14:30;;;;;;;10.43;4.32;;;5.90;99.90;;;;;;5066374;28;20297;-77
2021/01/22 17:16:55;;;;;;;7.72;5.15;;;6.70;99.90;;;;;;5049293;28;20113;-78
2021/01/22 17:19:21;;;;;;;7.63;4.10;;;5.80;99.90;;;;;;5066805;28;20690;-79
2021/01/22 17:21:47;;;;;;;7.80;4.68;;;7.00;99.90;;;;;;5049515;28;20083;-78
2021/01/22 17:24:13;;;;;;;8.23;5.10;;;5.80;99.90;;;;;;5053119;28;20513;-79
2021/01/22 17:26:38;;;;;;;7.30;4.75;;;5.70;99.90;;;;;;5064693;28;20500;-78
2021/01/22 17:29:05;;;;;;;7.30;4.40;;;5.70;99.90;;;;;;5064628;28;20040;-78
2021/01/22 17:31:32;;;;;;;9.10;5.15;;;5.70;99.90;;;;;;5089968;28;20050;-79
2021/01/22 17:33:58;;;;;;;8.90;5.35;;;5.70;99.90;;;;;;5085205;28;20031;-78
2021/01/22 17:36:26;;;;;;;8.10;5.32;;;6.90;99.90;;;;;;5069961;28;20032;-78
2021/01/22 17:38:52;;;;;;;8.88;5.45;;;5.70;99.90;;;;;;5074089;28;20852;-78
2021/01/22 17:41:17;;;;;;;8.63;5.53;;;5.70;99.90;;;;;;5052762;28;20131;-80
2021/01/22 17:43:44;;;;;;;10.30;5.65;;;5.80;99.90;;;;;;5083854;28;20071;-79
2021/01/22 17:46:10;;;;;;;10.38;6.47;;;5.70;99.90;;;;;;5071721;28;20039;-78
2021/01/22 17:48:36;;;;;;;9.13;5.57;;;5.80;99.90;;;;;;5067567;28;20036;-77
2021/01/22 17:51:02;;;;;;;11.10;6.38;;;5.70;99.90;;;;;;5071433;28;20047;-79
2021/01/22 17:53:28;;;;;;;8.35;6.10;;;;;;;;;;5066668;28;20043;-80
2021/01/22 17:55:53;;;;;;;9.50;5.68;;;5.70;99.90;;;;;;5065668;28;20040;-79
2021/01/22 17:58:19;;;;;;;11.32;5.15;;;5.70;99.90;;;;;;5042927;28;20032;-77
2021/01/22 18:00:45;;;;;;;9.82;6.25;;;6.60;99.90;;;;;;5065560;28;20089;-78
2021/01/22 18:03:10;;;;;;;9.77;5.47;;;5.60;99.90;;;;;;5054569;28;20063;-78
2021/01/22 18:05:36;;;;;;;9.38;5.70;;;5.70;99.90;;;;;;5087144;28;20111;-76
2021/01/22 18:08:03;;;;;;;8.02;5.28;;;5.70;99.90;;;;;;5061258;28;20080;-79
2021/01/22 18:10:29;;;;;;;8.23;5.40;;;5.60;99.90;;;;;;5078482;28;20492;-77
2021/01/22 18:12:55;;;;;;;10.80;7.03;;;5.70;99.90;;;;;;5069635;28;20051;-78
2021/01/22 18:15:20;;;;;;;11.75;7.68;;;5.70;99.90;;;;;;5049755;28;20055;-77
2021/01/22 18:17:46;;;;;;;11.07;7.43;;;5.60;99.90;;;;;;5057858;28;20188;-78
2021/01/22 18:20:12;;;;;;;11.32;7.50;;;5.60;99.90;;;;;;5087336;28;20077;-78
2021/01/22 18:22:39;;;;;;;11.63;8.25;;;6.00;99.90;;;;;;5067770;28;20040;-78
2021/01/22 18:25:06;;;;;;;11.80;8.30;;;5.60;99.90;;;;;;5066349;28;20101;-79
2021/01/22 18:27:31;;;;;;;12.07;8.60;;;5.70;99.90;;;;;;5064373;28;20082;-78
2021/01/22 18:29:58;;;;;;;13.48;7.35;;;5.70;99.90;;;;;;5083929;28;20048;-79
2021/01/22 18:32:23;;;;;;;13.10;7.88;;;8.30;99.90;;;;;;5069296;28;20043;-78
2021/01/22 18:34:49;;;;;;;10.80;6.75;;;5.60;99.90;;;;;;5069884;28;20040;-82
2021/01/22 18:37:15;;;;;;;11.75;5.85;;;;;;;;;;5065893;28;20039;-79
2021/01/22 18:39:41;;;;;;;9.00;5.53;;;5.70;99.90;;;;;;5089838;28;20040;-83
2021/01/22 18:42:07;;;;;;;6.15;3.70;;;5.70;99.90;;;;;;5069891;28;21086;-81
2021/01/22 18:44:33;;;;;;;7.07;3.10;;;5.70;99.90;;;;;;5083092;28;20044;-79
2021/01/22 18:47:01;;;;;;;6.97;3.47;;;;;;;;;;5065301;28;20154;-80
2021/01/22 18:49:27;;;;;;;5.05;2.65;;;5.80;99.90;;;;;;5067916;28;20055;-79
2021/01/22 18:51:52;;;;;;;6.10;3.25;;;5.90;99.90;;;;;;5068128;28;20041;-80
2021/01/22 18:54:18;;;;;;;7.40;2.90;;;6.70;99.90;;;;;;5070685;28;20103;-79
2021/01/22 18:56:45;;;;;;;5.78;2.63;;;5.90;99.90;;;;;;5061068;28;20189;-79
2021/01/22 18:59:11;;;;;;;4.72;2.20;;;5.80;99.90;;;;;;5066217;28;20036;-78
2021/01/22 19:01:36;;;;;;;6.63;3.13;;;5.90;99.90;;;;;;5088237;28;20027;-80
2021/01/22 19:04:03;;;;;;;8.70;3.22;;;;;;;;;;5085510;28;20036;-79
2021/01/22 19:06:30;;;;;;;7.57;2.92;;;5.80;99.90;;;;;;5069980;28;20039;-76
2021/01/22 19:08:56;;;;;;;4.88;2.60;;;5.80;99.90;;;;;;5070282;28;20452;-81
2021/01/22 19:11:22;;;;;;;9.07;3.40;;;5.80;99.90;;;;;;5069004;28;20028;-77
2021/01/22 19:13:48;;;;;;;8.45;3.42;;;7.40;99.90;;;;;;5045297;28;20131;-77
2021/01/22 19:16:15;;;;;;;8.45;3.33;;;5.80;99.90;;;;;;5053303;28;20603;-79
2021/01/22 19:18:47;;;;;;;4.90;3.13;;;5.80;99.90;;;;;;5070483;28;20127;-81
2021/01/22 19:21:14;;;;;;;7.78;3.20;;;7.10;99.90;;;;;;5087621;28;20103;-79
2021/01/22 19:23:39;;;;;;;5.93;3.30;;;5.80;99.90;;;;;;5063656;28;20413;-77
2021/01/22 19:26:06;;;;;;;6.78;3.65;;;5.80;99.90;;;;;;5087340;28;20039;-78
2021/01/22 19:28:32;;;;;;;7.97;3.97;;;5.80;99.90;;;;;;5083454;28;20016;-78
2021/01/22 19:31:00;;;;;;;7.10;3.90;;;5.80;99.90;;;;;;5084536;28;20036;-80
2021/01/22 19:33:25;;;;;;;8.57;4.57;;;5.80;99.90;;;;;;5063851;28;20555;-79
2021/01/22 19:35:51;;;;;;;7.30;4.38;;;5.80;99.90;;;;;;5080901;28;20107;-78
2021/01/22 19:38:17;;;;;;;7.78;4.35;;;5.70;99.90;;;;;;5066169;28;20174;-79
2021/01/22 19:40:43;;;;;;;11.60;4.38;;;5.80;99.90;;;;;;5081890;28;20032;-78
2021/01/22 19:43:09;;;;;;;8.07;4.80;;;5.80;99.90;;;;;;5065813;28;20036;-79
2021/01/22 19:45:35;;;;;;;11.77;5.50;;;5.80;99.90;;;;;;5067641;28;20390;-81
2021/01/22 19:48:02;;;;;;;7.40;4.28;;;8.40;99.90;;;;;;5051215;28;20051;-78
2021/01/22 19:50:28;;;;;;;7.38;4.65;;;6.00;99.90;;;;;;5086002;28;20070;-77
2021/01/22 19:52:57;;;;;;;11.98;6.03;;;5.90;99.90;;;;;;5030569;28;20336;-77
2021/01/22 19:55:23;;;;;;;9.32;4.38;;;5.90;99.90;;;;;;5050752;28;20037;-76
2021/01/22 19:57:48;;;;;;;9.07;4.28;;;5.90;99.90;;;;;;5072122;28;20089;-77
2021/01/22 20:00:15;;;;;;;9.63;4.68;;;5.90;99.90;;;;;;5091325;28;20310;-76
2021/01/22 20:02:41;;;;;;;7.30;3.72;;;6.00;99.90;;;;;;5069146;28;20525;-79
2021/01/22 20:05:07;;;;;;;8.68;4.57;;;6.20;99.90;;;;;;5054509;28;20033;-78
2021/01/22 20:07:33;;;;;;;8.15;4.60;;;5.90;99.90;;;;;;5054290;28;20131;-77
2021/01/22 20:09:59;;;;;;;9.18;4.90;;;5.90;99.90;;;;;;5085088;28;20032;-79
2021/01/22 20:12:25;;;;;;;10.15;4.95;;;6.40;99.90;;;;;;5085707;28;20094;-76
2021/01/22 20:14:51;;;;;;;7.07;3.83;;;5.80;99.90;;;;;;5070732;28;20060;-77
2021/01/22 20:17:16;;;;;;;7.32;3.92;;;7.10;99.90;;;;;;5064379;28;20414;-77
2021/01/22 20:19:42;;;;;;;7.10;3.78;;;5.80;99.90;;;;;;5084834;28;20044;-77
2021/01/22 20:22:08;;;;;;;6.90;3.60;;;5.80;99.90;;;;;;5068002;28;20043;-78
2021/01/22 20:24:34;;;;;;;6.07;3.35;;;7.30;99.90;;;;;;5088602;28;20043;-77
2021/01/22 20:27:00;;;;;;;6.65;3.67;;;5.80;99.90;;;;;;5056102;28;20523;-78
2021/01/22 20:29:26;;;;;;;6.57;3.72;;;5.80;99.90;;;;;;5050177;28;20154;-77
2021/01/22 20:31:52;;;;;;;9.07;4.70;;;5.80;99.90;;;;;;5065685;28;20280;-79
2021/01/22 20:34:18;;;;;;;7.68;4.25;;;5.80;99.90;;;;;;5067817;28;20044;-77
2021/01/22 20:36:43;;;;;;;6.65;4.30;;;7.20;99.90;;;;;;5060363;28;20210;-77
2021/01/22 20:39:09;;;;;;;8.48;3.85;;;5.80;99.90;;;;;;5082187;28;20071;-78
2021/01/22 20:41:35;;;;;;;6.93;3.92;;;7.50;99.90;;;;;;5051091;28;20481;-79
2021/01/22 20:44:00;;;;;;;8.48;4.15;;;6.00;99.90;;;;;;5085029;28;20083;-78
2021/01/22 20:46:26;;;;;;;6.05;3.70;;;5.70;99.90;;;;;;5086025;28;20044;-78
2021/01/22 20:48:52;;;;;;;7.93;4.32;;;5.70;99.90;;;;;;5053448;28;20516;-78
2021/01/22 20:51:18;;;;;;;9.82;4.32;;;5.70;99.90;;;;;;5084356;28;20894;-78
2021/01/22 20:53:44;;;;;;;11.32;4.60;;;5.70;99.90;;;;;;5086354;28;20039;-77
2021/01/22 20:56:09;;;;;;;7.32;4.20;;;5.70;99.90;;;;;;5067683;28;20040;-76
2021/01/22 20:58:35;;;;;;;10.63;5.63;;;8.00;99.90;;;;;;5047609;28;20054;-78
2021/01/22 21:01:01;;;;;;;9.57;4.90;;;5.60;99.90;;;;;;5069867;28;20067;-78
2021/01/22 21:03:27;;;;;;;12.20;6.18;;;5.70;99.90;;;;;;5077623;28;20788;-76
2021/01/22 21:05:52;;;;;;;10.63;5.70;;;5.70;99.90;;;;;;5057501;28;20055;-76
2021/01/22 21:08:18;;;;;;;9.43;5.45;;;5.70;99.90;;;;;;5084289;28;20047;-77
2021/01/22 21:10:44;;;;;;;9.63;5.28;;;5.70;99.90;;;;;;5085599;28;20456;-78
2021/01/22 21:13:10;;;;;;;12.00;5.85;;;5.70;99.90;;;;;;5083499;28;20139;-77
2021/01/22 21:15:39;;;;;;;9.52;5.13;;;5.60;99.90;;;;;;5052760;28;20123;-77
2021/01/22 21:18:05;;;;;;;11.95;5.63;;;5.60;99.90;;;;;;5065131;28;20079;-76
2021/01/22 21:20:30;;;;;;;10.98;5.50;;;5.60;99.90;;;;;;5060887;28;20052;-77
2021/01/22 21:22:56;;;;;;;10.50;5.55;;;6.30;99.90;;;;;;5075367;28;20134;-76
2021/01/22 21:25:22;;;;;;;13.20;5.65;;;5.60;99.90;;;;;;5088022;28;20040;-77
2021/01/22 21:27:51;;;;;;;10.82;5.97;;;7.80;99.90;;;;;;5070710;28;20701;-78
2021/01/22 21:30:17;;;;;;;12.23;5.30;;;5.70;99.90;;;;;;5056091;28;20101;-78
2021/01/22 21:32:43;;;;;;;10.38;5.90;;;5.60;99.90;;;;;;5068400;28;20044;-77
2021/01/22 21:35:10;;;;;;;9.68;5.55;;;6.50;99.90;;;;;;5087593;28;20036;-77
2021/01/22 21:37:37;;;;;;;9.07;5.63;;;7.60;99.90;;;;;;5088479;28;20390;-78
2021/01/22 21:40:08;;;;;;;10.80;5.75;;;5.50;99.90;;;;;;5069164;28;20060;-76
2021/01/22 21:42:35;;;;;;;8.85;5.07;;;5.50;99.90;;;;;;5086568;28;20044;-77
2021/01/22 21:45:03;;;;;;;8.77;5.43;;;5.50;99.90;;;;;;5069789;28;20457;-78
2021/01/22 21:47:28;;;;;;;8.35;4.85;;;5.60;99.90;;;;;;5070171;28;20040;-77
2021/01/22 21:49:54;;;;;;;10.38;5.45;;;5.50;99.90;;;;;;5088425;28;20593;-77
2021/01/22 21:52:19;;;;;;;9.02;5.65;;;5.50;99.90;;;;;;5051937;28;20454;-77
2021/01/22 21:54:45;;;;;;;9.32;5.63;;;5.50;99.90;;;;;;5065126;28;20044;-77
2021/01/22 21:57:11;;;;;;;10.13;5.78;;;5.50;99.90;;;;;;5054043;28;20042;-77
2021/01/22 21:59:36;;;;;;;9.23;5.43;;;5.50;99.90;;;;;;5069300;28;20181;-79
2021/01/22 22:02:02;;;;;;;8.88;5.13;;;5.50;99.90;;;;;;5070547;28;20051;-77
2021/01/22 22:04:28;;;;;;;10.68;5.28;;;5.50;99.90;;;;;;5059733;28;20048;-77
2021/01/22 22:06:55;;;;;;;12.02;5.40;;;5.50;99.90;;;;;;5063645;28;20040;-78
2021/01/22 22:09:20;;;;;;;13.43;6.47;;;5.50;99.90;;;;;;5057880;28;20055;-77
2021/01/22 22:11:46;;;;;;;11.70;6.28;;;5.50;99.90;;;;;;5069153;28;20054;-76
2021/01/22 22:14:12;;;;;;;9.90;5.75;;;;;;;;;;5091211;28;20028;-81
2021/01/22 22:16:38;;;;;;;11.45;6.35;;;5.60;99.90;;;;;;5073985;28;20036;-78
2021/01/22 22:19:06;;;;;;;11.43;6.15;;;5.70;99.90;;;;;;5050024;28;20045;-77
2021/01/22 22:21:33;;;;;;;9.75;5.40;;;7.50;99.90;;;;;;5061128;28;20505;-76
2021/01/22 22:23:59;;;;;;;9.55;5.75;;;5.80;99.90;;;;;;5060207;28;20028;-76
2021/01/22 22:26:25;;;;;;;11.07;6.30;;;5.70;99.90;;;;;;5081382;28;20040;-78
2021/01/22 22:28:50;;;;;;;10.10;6.30;;;7.00;99.90;;;;;;5073741;28;20053;-78
2021/01/22 22:31:17;;;;;;;14.18;7.03;;;;;;;;;;5066528;28;20045;-76
2021/01/22 22:33:43;;;;;;;14.80;7.40;;;5.60;99.90;;;;;;5082279;28;20075;-76
2021/01/22 22:36:09;;;;;;;13.40;6.90;;;5.60;99.90;;;;;;5047259;28;20478;-76
2021/01/22 22:38:36;;;;;;;18.42;8.18;;;5.60;99.90;;;;;;5076888;28;20536;-77
2021/01/22 22:41:02;;;;;;;14.63;7.13;;;5.50;99.90;;;;;;5046340;28;20101;-77
2021/01/22 22:43:27;;;;;;;12.80;7.18;;;5.50;99.90;;;;;;5080504;28;20118;-78
2021/01/22 22:45:53;;;;;;;13.85;7.55;;;5.40;99.90;;;;;;5059351;28;20036;-77
2021/01/22 22:48:22;;;;;;;14.35;7.25;;;5.40;99.90;;;;;;5084779;28;20116;-78
2021/01/22 22:50:48;;;;;;;12.63;6.95;;;5.40;99.90;;;;;;5070905;28;20042;-78
2021/01/22 22:53:14;;;;;;;11.88;7.07;;;5.40;99.90;;;;;;5051973;28;20135;-78
2021/01/22 22:55:40;;;;;;;9.93;6.53;;;5.40;99.90;;;;;;5054111;28;20174;-77
2021/01/22 22:58:05;;;;;;;10.18;6.80;;;5.40;99.90;;;;;;5056435;28;20075;-78
2021/01/22 23:00:31;;;;;;;11.57;6.50;;;5.30;99.90;;;;;;5054638;28;20093;-79
2021/01/22 23:02:57;;;;;;;11.57;6.03;;;5.40;99.90;;;;;;5085389;28;20032;-77
2021/01/22 23:05:22;;;;;;;9.00;6.18;;;7.20;99.90;;;;;;5080790;28;20463;-77
2021/01/22 23:07:48;;;;;;;12.05;7.03;;;5.30;99.90;;;;;;5055214;28;20052;-77
2021/01/22 23:10:14;;;;;;;13.15;6.60;;;5.30;99.90;;;;;;5080150;28;20120;-77
2021/01/22 23:12:40;;;;;;;11.88;7.05;;;5.30;99.90;;;;;;5069716;28;20048;-76
2021/01/22 23:15:06;;;;;;;10.85;6.95;;;5.30;99.90;;;;;;5061670;28;20032;-79
2021/01/22 23:17:32;;;;;;;10.38;6.38;;;5.40;99.90;;;;;;5073393;28;20045;-78
2021/01/22 23:19:58;;;;;;;12.18;6.10;;;5.30;99.90;;;;;;5073492;28;20099;-77
2021/01/22 23:22:24;;;;;;;13.48;6.80;;;8.50;99.90;;;;;;5043092;28;20048;-80
2021/01/22 23:24:49;;;;;;;13.32;6.43;;;7.50;99.90;;;;;;5056991;28;20056;-80
2021/01/22 23:27:16;;;;;;;12.90;7.40;;;7.10;99.90;;;;;;5059114;28;20093;-80
2021/01/22 23:29:44;;;;;;;11.27;6.70;;;5.50;99.90;;;;;;5076135;28;20101;-82
2021/01/22 23:32:10;;;;;;;10.40;6.30;;;;;;;;;;5060046;28;20104;-82
2021/01/22 23:34:36;;;;;;;14.38;6.95;;;5.50;99.90;;;;;;5042995;28;20072;-81
2021/01/22 23:37:03;;;;;;;11.05;6.00;;;5.60;99.90;;;;;;5078753;28;20569;-80
2021/01/22 23:39:29;;;;;;;12.02;5.78;;;5.40;99.90;;;;;;5076505;28;20391;-78
2021/01/22 23:41:55;;;;;;;10.25;6.18;;;5.20;99.90;;;;;;5056510;28;20039;-80
2021/01/22 23:44:20;;;;;;;12.07;5.47;;;5.40;99.90;;;;;;5064173;28;20040;-80
2021/01/22 23:46:46;;;;;;;9.55;5.65;;;;;;;;;;5072523;28;20036;-78
2021/01/22 23:49:12;;;;;;;14.13;5.93;;;5.20;99.90;;;;;;5075656;28;20477;-79
2021/01/22 23:51:38;;;;;;;9.05;5.65;;;5.10;99.90;;;;;;5060930;28;20042;-79
2021/01/22 23:54:07;;;;;;;12.48;6.03;;;5.10;99.90;;;;;;5066980;28;20036;-80
2021/01/22 23:56:33;;;;;;;11.57;5.32;;;5.10;99.90;;;;;;5062805;28;20029;-80
2021/01/22 23:59:01;;;;;;;10.25;5.45;;;5.10;99.90;;;;;;5060835;28;20032;-80
